sensor_id;sensor_type;location;lat;lon;timestamp;pressure;altitude;pressure_sealevel;temperature;humidity
58927;BME280;44712;52.530;9.760;2022-08-21T00:00:26;101097.75;;;15.22;88.67
58927;BME280;44712;52.530;9.760;2022-08-21T00:03:01;101091.59;;;15.15;88.48
58927;BME280;44712;52.530;9.760;2022-08-21T00:05:29;101093.34;;;15.16;89.08
58927;BME280;44712;52.530;9.760;2022-08-21T00:07:56;101089.84;;;15.11;89.08
58927;BME280;44712;52.530;9.760;2022-08-21T00:10:23;101087.25;;;15.06;89.62
58927;BME280;44712;52.530;9.760;2022-08-21T00:12:49;101090.94;;;15.04;90.47
58927;BME280;44712;52.530;9.760;2022-08-21T00:15:23;101087.47;;;14.97;90.79
58927;BME280;44712;52.530;9.760;2022-08-21T00:17:56;101082.16;;;14.93;91.09
58927;BME280;44712;52.530;9.760;2022-08-21T00:20:24;101074.09;;;14.88;91.16
58927;BME280;44712;52.530;9.760;2022-08-21T00:22:51;101084.16;;;14.86;91.49
58927;BME280;44712;52.530;9.760;2022-08-21T00:25:20;101085.78;;;14.93;91.94
58927;BME280;44712;52.530;9.760;2022-08-21T00:27:51;101082.28;;;14.88;91.52
58927;BME280;44712;52.530;9.760;2022-08-21T00:30:20;101084.22;;;14.83;91.85
58927;BME280;44712;52.530;9.760;2022-08-21T00:32:50;101077.19;;;14.74;91.62
58927;BME280;44712;52.530;9.760;2022-08-21T00:35:20;101086.22;;;14.75;92.09
58927;BME280;44712;52.530;9.760;2022-08-21T00:37:46;101087.25;;;14.70;92.93
58927;BME280;44712;52.530;9.760;2022-08-21T00:40:17;101081.00;;;14.65;92.82
58927;BME280;44712;52.530;9.760;2022-08-21T00:42:45;101088.44;;;14.57;92.87
58927;BME280;44712;52.530;9.760;2022-08-21T00:45:25;101088.56;;;14.51;93.42
58927;BME280;44712;52.530;9.760;2022-08-21T00:47:52;101094.09;;;14.48;93.69
58927;BME280;44712;52.530;9.760;2022-08-21T00:50:21;101090.53;;;14.46;94.15
58927;BME280;44712;52.530;9.760;2022-08-21T00:52:51;101091.47;;;14.45;94.00
58927;BME280;44712;52.530;9.760;2022-08-21T00:55:20;101101.44;;;14.46;94.19
58927;BME280;44712;52.530;9.760;2022-08-21T00:57:52;101090.53;;;14.46;94.38
58927;BME280;44712;52.530;9.760;2022-08-21T01:00:33;101091.44;;;14.46;93.77
58927;BME280;44712;52.530;9.760;2022-08-21T01:03:04;101089.75;;;14.39;92.85
58927;BME280;44712;52.530;9.760;2022-08-21T01:05:34;101084.44;;;14.34;93.44
58927;BME280;44712;52.530;9.760;2022-08-21T01:08:01;101092.59;;;14.34;93.84
58927;BME280;44712;52.530;9.760;2022-08-21T01:10:29;101099.84;;;14.35;94.16
58927;BME280;44712;52.530;9.760;2022-08-21T01:12:57;101094.25;;;14.42;93.81
58927;BME280;44712;52.530;9.760;2022-08-21T01:15:27;101092.53;;;14.37;94.09
58927;BME280;44712;52.530;9.760;2022-08-21T01:17:55;101093.56;;;14.32;93.60
58927;BME280;44712;52.530;9.760;2022-08-21T01:20:22;101096.41;;;14.27;93.71
58927;BME280;44712;52.530;9.760;2022-08-21T01:23:00;101097.50;;;14.18;93.72
58927;BME280;44712;52.530;9.760;2022-08-21T01:25:26;101102.16;;;14.13;94.66
58927;BME280;44712;52.530;9.760;2022-08-21T01:27:54;101104.06;;;14.10;94.33
58927;BME280;44712;52.530;9.760;2022-08-21T01:30:27;101102.31;;;14.05;94.73
58927;BME280;44712;52.530;9.760;2022-08-21T01:32:55;101095.09;;;14.03;95.25
58927;BME280;44712;52.530;9.760;2022-08-21T01:35:22;101103.44;;;13.95;95.50
58927;BME280;44712;52.530;9.760;2022-08-21T01:38:15;101099.13;;;13.85;95.57
58927;BME280;44712;52.530;9.760;2022-08-21T01:40:42;101094.72;;;13.79;95.81
58927;BME280;44712;52.530;9.760;2022-08-21T01:43:08;101096.56;;;13.77;95.94
58927;BME280;44712;52.530;9.760;2022-08-21T01:45:35;101094.75;;;13.76;96.32
58927;BME280;44712;52.530;9.760;2022-08-21T01:48:02;101091.09;;;13.77;96.16
58927;BME280;44712;52.530;9.760;2022-08-21T01:50:29;101087.47;;;13.78;96.22
58927;BME280;44712;52.530;9.760;2022-08-21T01:52:56;101092.91;;;13.78;95.92
58927;BME280;44712;52.530;9.760;2022-08-21T01:55:23;101084.78;;;13.77;95.92
58927;BME280;44712;52.530;9.760;2022-08-21T01:57:50;101099.31;;;13.76;95.77
58927;BME280;44712;52.530;9.760;2022-08-21T02:00:20;101083.94;;;13.73;95.97
58927;BME280;44712;52.530;9.760;2022-08-21T02:02:49;101086.69;;;13.71;96.27
58927;BME280;44712;52.530;9.760;2022-08-21T02:05:16;101081.47;;;13.61;96.31
58927;BME280;44712;52.530;9.760;2022-08-21T02:07:46;101084.28;;;13.56;96.80
58927;BME280;44712;52.530;9.760;2022-08-21T02:10:17;101083.50;;;13.51;97.50
58927;BME280;44712;52.530;9.760;2022-08-21T02:12:44;101080.84;;;13.46;97.15
58927;BME280;44712;52.530;9.760;2022-08-21T02:15:10;101073.56;;;13.47;97.59
58927;BME280;44712;52.530;9.760;2022-08-21T02:17:50;101068.22;;;13.44;97.53
58927;BME280;44712;52.530;9.760;2022-08-21T02:20:23;101072.78;;;13.42;97.88
58927;BME280;44712;52.530;9.760;2022-08-21T02:22:51;101070.03;;;13.43;98.57
58927;BME280;44712;52.530;9.760;2022-08-21T02:25:19;101069.13;;;13.43;97.81
58927;BME280;44712;52.530;9.760;2022-08-21T02:27:46;101064.66;;;13.42;98.51
58927;BME280;44712;52.530;9.760;2022-08-21T02:30:22;101061.94;;;13.42;98.23
58927;BME280;44712;52.530;9.760;2022-08-21T02:32:49;101060.06;;;13.44;98.13
58927;BME280;44712;52.530;9.760;2022-08-21T02:35:16;101063.69;;;13.43;97.54
58927;BME280;44712;52.530;9.760;2022-08-21T02:37:46;101051.88;;;13.45;98.11
58927;BME280;44712;52.530;9.760;2022-08-21T02:40:14;101052.88;;;13.39;98.08
58927;BME280;44712;52.530;9.760;2022-08-21T02:42:41;101053.88;;;13.34;98.11
58927;BME280;44712;52.530;9.760;2022-08-21T02:45:08;101055.69;;;13.33;98.72
58927;BME280;44712;52.530;9.760;2022-08-21T02:47:35;101049.47;;;13.28;98.50
58927;BME280;44712;52.530;9.760;2022-08-21T02:50:03;101049.50;;;13.25;98.83
58927;BME280;44712;52.530;9.760;2022-08-21T02:52:29;101053.28;;;13.18;99.31
58927;BME280;44712;52.530;9.760;2022-08-21T02:54:56;101049.75;;;13.13;99.52
58927;BME280;44712;52.530;9.760;2022-08-21T02:57:23;101044.41;;;13.08;99.71
58927;BME280;44712;52.530;9.760;2022-08-21T02:59:49;101041.69;;;13.06;99.76
58927;BME280;44712;52.530;9.760;2022-08-21T03:02:18;101038.19;;;13.00;100.00
58927;BME280;44712;52.530;9.760;2022-08-21T03:04:45;101042.81;;;12.96;100.00
58927;BME280;44712;52.530;9.760;2022-08-21T03:07:12;101042.03;;;12.89;100.00
58927;BME280;44712;52.530;9.760;2022-08-21T03:09:39;101033.00;;;12.86;100.00
58927;BME280;44712;52.530;9.760;2022-08-21T03:12:21;101037.63;;;12.81;100.00
58927;BME280;44712;52.530;9.760;2022-08-21T03:14:49;101038.59;;;12.77;100.00
58927;BME280;44712;52.530;9.760;2022-08-21T03:17:16;101046.75;;;12.77;100.00
58927;BME280;44712;52.530;9.760;2022-08-21T03:19:46;101039.53;;;12.76;100.00
58927;BME280;44712;52.530;9.760;2022-08-21T03:22:12;101034.09;;;12.76;100.00
58927;BME280;44712;52.530;9.760;2022-08-21T03:24:39;101041.31;;;12.77;100.00
58927;BME280;44712;52.530;9.760;2022-08-21T03:27:09;101041.34;;;12.75;100.00
58927;BME280;44712;52.530;9.760;2022-08-21T03:29:36;101035.91;;;12.75;100.00
58927;BME280;44712;52.530;9.760;2022-08-21T03:32:02;101043.16;;;12.75;100.00
58927;BME280;44712;52.530;9.760;2022-08-21T03:34:29;101050.38;;;12.76;100.00
58927;BME280;44712;52.530;9.760;2022-08-21T03:36:56;101039.59;;;12.72;100.00
58927;BME280;44712;52.530;9.760;2022-08-21T03:39:22;101035.97;;;12.70;100.00
58927;BME280;44712;52.530;9.760;2022-08-21T03:41:51;101023.34;;;12.69;100.00
58927;BME280;44712;52.530;9.760;2022-08-21T03:44:19;101037.78;;;12.71;100.00
58927;BME280;44712;52.530;9.760;2022-08-21T03:46:46;101028.78;;;12.69;100.00
58927;BME280;44712;52.530;9.760;2022-08-21T03:49:16;101037.78;;;12.71;100.00
58927;BME280;44712;52.530;9.760;2022-08-21T03:51:42;101022.41;;;12.72;100.00
58927;BME280;44712;52.530;9.760;2022-08-21T03:54:09;101030.53;;;12.73;100.00
58927;BME280;44712;52.530;9.760;2022-08-21T03:56:36;101026.03;;;12.71;100.00
58927;BME280;44712;52.530;9.760;2022-08-21T03:59:03;101032.34;;;12.71;100.00
58927;BME280;44712;52.530;9.760;2022-08-21T04:01:31;101031.34;;;12.79;100.00
58927;BME280;44712;52.530;9.760;2022-08-21T04:04:24;101034.72;;;12.92;100.00
58927;BME280;44712;52.530;9.760;2022-08-21T04:06:51;101029.22;;;12.95;100.00
58927;BME280;44712;52.530;9.760;2022-08-21T04:09:18;101035.50;;;12.98;100.00
58927;BME280;44712;52.530;9.760;2022-08-21T04:11:45;101039.03;;;13.03;100.00
58927;BME280;44712;52.530;9.760;2022-08-21T04:14:14;101039.91;;;13.04;100.00
58927;BME280;44712;52.530;9.760;2022-08-21T04:16:47;101046.19;;;13.07;100.00
58927;BME280;44712;52.530;9.760;2022-08-21T04:19:14;101047.09;;;13.10;100.00
58927;BME280;44712;52.530;9.760;2022-08-21T04:21:41;101040.66;;;13.14;100.00
58927;BME280;44712;52.530;9.760;2022-08-21T04:24:11;101039.66;;;13.19;100.00
58927;BME280;44712;52.530;9.760;2022-08-21T04:26:38;101049.56;;;13.22;100.00
58927;BME280;44712;52.530;9.760;2022-08-21T04:29:06;101042.25;;;13.24;100.00
58927;BME280;44712;52.530;9.760;2022-08-21T04:31:36;101028.66;;;13.26;100.00
58927;BME280;44712;52.530;9.760;2022-08-21T04:34:04;101040.44;;;13.26;100.00
58927;BME280;44712;52.530;9.760;2022-08-21T04:36:32;101036.81;;;13.26;100.00
58927;BME280;44712;52.530;9.760;2022-08-21T04:38:59;101041.31;;;13.28;100.00
58927;BME280;44712;52.530;9.760;2022-08-21T04:41:30;101047.59;;;13.30;100.00
58927;BME280;44712;52.530;9.760;2022-08-21T04:43:57;101048.41;;;13.35;100.00
58927;BME280;44712;52.530;9.760;2022-08-21T04:46:24;101049.25;;;13.41;100.00
58927;BME280;44712;52.530;9.760;2022-08-21T04:48:50;101049.06;;;13.50;100.00
58927;BME280;44712;52.530;9.760;2022-08-21T04:51:19;101056.31;;;13.51;100.00
58927;BME280;44712;52.530;9.760;2022-08-21T04:53:53;101058.06;;;13.52;100.00
58927;BME280;44712;52.530;9.760;2022-08-21T04:58:51;101052.44;;;13.61;100.00
58927;BME280;44712;52.530;9.760;2022-08-21T05:01:22;101052.34;;;13.67;100.00
58927;BME280;44712;52.530;9.760;2022-08-21T05:03:54;101048.63;;;13.71;100.00
58927;BME280;44712;52.530;9.760;2022-08-21T05:06:22;101059.44;;;13.75;100.00
58927;BME280;44712;52.530;9.760;2022-08-21T05:08:51;101056.63;;;13.79;100.00
58927;BME280;44712;52.530;9.760;2022-08-21T05:11:28;101055.66;;;13.82;100.00
58927;BME280;44712;52.530;9.760;2022-08-21T05:13:57;101061.03;;;13.85;100.00
58927;BME280;44712;52.530;9.760;2022-08-21T05:16:23;101066.41;;;13.88;100.00
58927;BME280;44712;52.530;9.760;2022-08-21T05:19:05;101057.25;;;13.92;100.00
58927;BME280;44712;52.530;9.760;2022-08-21T05:21:33;101059.94;;;13.94;100.00
58927;BME280;44712;52.530;9.760;2022-08-21T05:24:00;101069.84;;;13.96;100.00
58927;BME280;44712;52.530;9.760;2022-08-21T05:26:27;101074.31;;;14.00;100.00
58927;BME280;44712;52.530;9.760;2022-08-21T05:28:54;101075.16;;;14.02;100.00
58927;BME280;44712;52.530;9.760;2022-08-21T05:31:23;101073.25;;;14.07;100.00
58927;BME280;44712;52.530;9.760;2022-08-21T05:33:50;101077.59;;;14.16;100.00
58927;BME280;44712;52.530;9.760;2022-08-21T05:36:18;101078.41;;;14.20;100.00
58927;BME280;44712;52.530;9.760;2022-08-21T05:38:45;101068.31;;;14.25;100.00
58927;BME280;44712;52.530;9.760;2022-08-21T05:41:12;101065.50;;;14.28;100.00
58927;BME280;44712;52.530;9.760;2022-08-21T05:43:39;101075.47;;;14.29;100.00
58927;BME280;44712;52.530;9.760;2022-08-21T05:46:06;101073.59;;;14.33;100.00
58927;BME280;44712;52.530;9.760;2022-08-21T05:48:34;101082.53;;;14.38;100.00
58927;BME280;44712;52.530;9.760;2022-08-21T05:51:20;101076.06;;;14.44;100.00
58927;BME280;44712;52.530;9.760;2022-08-21T05:53:47;101074.13;;;14.49;100.00
58927;BME280;44712;52.530;9.760;2022-08-21T05:56:14;101083.09;;;14.54;100.00
58927;BME280;44712;52.530;9.760;2022-08-21T05:58:41;101099.25;;;14.63;100.00
58927;BME280;44712;52.530;9.760;2022-08-21T06:01:08;101090.94;;;14.68;100.00
58927;BME280;44712;52.530;9.760;2022-08-21T06:03:39;101079.00;;;14.73;100.00
58927;BME280;44712;52.530;9.760;2022-08-21T06:06:06;101087.03;;;14.80;100.00
58927;BME280;44712;52.530;9.760;2022-08-21T06:08:33;101089.59;;;14.86;100.00
58927;BME280;44712;52.530;9.760;2022-08-21T06:11:01;101094.88;;;14.92;100.00
58927;BME280;44712;52.530;9.760;2022-08-21T06:13:28;101090.25;;;14.96;100.00
58927;BME280;44712;52.530;9.760;2022-08-21T06:16:07;101094.75;;;14.98;100.00
58927;BME280;44712;52.530;9.760;2022-08-21T06:18:35;101092.84;;;15.00;100.00
58927;BME280;44712;52.530;9.760;2022-08-21T06:21:02;101091.72;;;15.09;100.00
58927;BME280;44712;52.530;9.760;2022-08-21T06:23:29;101097.03;;;15.14;100.00
58927;BME280;44712;52.530;9.760;2022-08-21T06:26:01;101087.00;;;15.16;100.00
58927;BME280;44712;52.530;9.760;2022-08-21T06:28:28;101089.59;;;15.22;100.00
58927;BME280;44712;52.530;9.760;2022-08-21T06:30:58;101090.34;;;15.27;100.00
58927;BME280;44712;52.530;9.760;2022-08-21T06:33:24;101087.53;;;15.30;100.00
58927;BME280;44712;52.530;9.760;2022-08-21T06:35:58;101087.41;;;15.35;100.00
58927;BME280;44712;52.530;9.760;2022-08-21T06:38:24;101092.75;;;15.39;100.00
58927;BME280;44712;52.530;9.760;2022-08-21T06:40:52;101088.94;;;15.45;100.00
58927;BME280;44712;52.530;9.760;2022-08-21T06:43:18;101090.59;;;15.51;100.00
58927;BME280;44712;52.530;9.760;2022-08-21T06:45:45;101094.09;;;15.56;100.00
58927;BME280;44712;52.530;9.760;2022-08-21T06:48:14;101098.38;;;15.66;100.00
58927;BME280;44712;52.530;9.760;2022-08-21T06:50:45;101085.41;;;15.74;100.00
58927;BME280;44712;52.530;9.760;2022-08-21T06:53:14;101087.91;;;15.84;98.85
58927;BME280;44712;52.530;9.760;2022-08-21T06:55:42;101087.47;;;15.98;97.63
58927;BME280;44712;52.530;9.760;2022-08-21T06:58:10;101091.88;;;16.03;96.80
58927;BME280;44712;52.530;9.760;2022-08-21T07:00:42;101084.50;;;16.05;96.38
58927;BME280;44712;52.530;9.760;2022-08-21T07:03:18;101084.34;;;16.12;94.98
58927;BME280;44712;52.530;9.760;2022-08-21T07:05:45;101085.66;;;16.28;95.29
58927;BME280;44712;52.530;9.760;2022-08-21T07:08:12;101087.16;;;16.38;95.45
58927;BME280;44712;52.530;9.760;2022-08-21T07:10:39;101078.44;;;16.55;94.83
58927;BME280;44712;52.530;9.760;2022-08-21T07:13:05;101073.25;;;16.74;95.54
58927;BME280;44712;52.530;9.760;2022-08-21T07:15:33;101081.88;;;16.89;91.54
58927;BME280;44712;52.530;9.760;2022-08-21T07:18:00;101077.69;;;17.05;90.01
58927;BME280;44712;52.530;9.760;2022-08-21T07:20:28;101071.66;;;17.21;89.46
58927;BME280;44712;52.530;9.760;2022-08-21T07:22:58;101078.06;;;17.47;89.55
58927;BME280;44712;52.530;9.760;2022-08-21T07:25:26;101073.47;;;17.72;86.56
58927;BME280;44712;52.530;9.760;2022-08-21T07:27:53;101081.84;;;17.93;84.93
58927;BME280;44712;52.530;9.760;2022-08-21T07:30:20;101071.84;;;18.16;83.98
58927;BME280;44712;52.530;9.760;2022-08-21T07:32:47;101065.00;;;18.28;83.42
58927;BME280;44712;52.530;9.760;2022-08-21T07:35:17;101067.78;;;18.50;81.65
58927;BME280;44712;52.530;9.760;2022-08-21T07:37:45;101056.75;;;18.73;80.46
58927;BME280;44712;52.530;9.760;2022-08-21T07:40:12;101062.53;;;18.88;79.68
58927;BME280;44712;52.530;9.760;2022-08-21T07:42:42;101063.56;;;19.07;78.39
58927;BME280;44712;52.530;9.760;2022-08-21T07:45:10;101065.75;;;19.20;76.64
58927;BME280;44712;52.530;9.760;2022-08-21T07:47:37;101059.34;;;19.42;73.25
58927;BME280;44712;52.530;9.760;2022-08-21T07:50:10;101054.25;;;19.73;73.74
58927;BME280;44712;52.530;9.760;2022-08-21T07:52:42;101050.13;;;19.84;72.15
58927;BME280;44712;52.530;9.760;2022-08-21T07:55:13;101052.69;;;20.07;71.35
58927;BME280;44712;52.530;9.760;2022-08-21T07:57:40;101042.59;;;20.27;72.96
58927;BME280;44712;52.530;9.760;2022-08-21T08:00:10;101055.22;;;20.31;71.24
58927;BME280;44712;52.530;9.760;2022-08-21T08:02:38;101050.97;;;20.43;69.65
58927;BME280;44712;52.530;9.760;2022-08-21T08:05:07;101054.06;;;20.73;69.77
58927;BME280;44712;52.530;9.760;2022-08-21T08:07:34;101046.38;;;20.80;66.44
58927;BME280;44712;52.530;9.760;2022-08-21T08:10:02;101052.16;;;20.93;65.48
58927;BME280;44712;52.530;9.760;2022-08-21T08:12:29;101040.69;;;21.02;62.94
58927;BME280;44712;52.530;9.760;2022-08-21T08:14:57;101041.34;;;21.25;65.37
58927;BME280;44712;52.530;9.760;2022-08-21T08:17:24;101044.06;;;21.43;65.21
58927;BME280;44712;52.530;9.760;2022-08-21T08:19:52;101041.78;;;21.51;63.38
58927;BME280;44712;52.530;9.760;2022-08-21T08:22:22;101054.47;;;21.55;62.65
58927;BME280;44712;52.530;9.760;2022-08-21T08:24:51;101048.31;;;21.67;61.92
58927;BME280;44712;52.530;9.760;2022-08-21T08:27:19;101046.00;;;21.76;61.88
58927;BME280;44712;52.530;9.760;2022-08-21T08:29:49;101048.72;;;21.93;58.52
58927;BME280;44712;52.530;9.760;2022-08-21T08:32:18;101048.34;;;21.99;56.99
58927;BME280;44712;52.530;9.760;2022-08-21T08:34:46;101048.91;;;21.90;55.45
58927;BME280;44712;52.530;9.760;2022-08-21T08:37:19;101040.22;;;22.30;57.50
58927;BME280;44712;52.530;9.760;2022-08-21T08:40:00;101040.44;;;22.43;56.17
58927;BME280;44712;52.530;9.760;2022-08-21T08:42:33;101034.28;;;22.69;56.52
58927;BME280;44712;52.530;9.760;2022-08-21T08:45:13;101042.72;;;22.98;56.75
58927;BME280;44712;52.530;9.760;2022-08-21T08:47:52;101037.28;;;23.27;55.54
58927;BME280;44712;52.530;9.760;2022-08-21T08:50:38;101034.97;;;23.50;54.09
58927;BME280;44712;52.530;9.760;2022-08-21T08:53:12;101034.00;;;23.51;52.50
58927;BME280;44712;52.530;9.760;2022-08-21T08:55:43;101037.03;;;23.46;49.92
58927;BME280;44712;52.530;9.760;2022-08-21T08:58:22;101034.03;;;23.65;51.74
58927;BME280;44712;52.530;9.760;2022-08-21T09:00:52;101031.44;;;23.62;49.28
58927;BME280;44712;52.530;9.760;2022-08-21T09:03:21;101028.69;;;23.48;48.76
58927;BME280;44712;52.530;9.760;2022-08-21T09:05:55;101024.94;;;23.63;50.95
58927;BME280;44712;52.530;9.760;2022-08-21T09:11:07;101025.69;;;23.36;48.37
58927;BME280;44712;52.530;9.760;2022-08-21T09:17:09;101022.00;;;23.95;48.68
58927;BME280;44712;52.530;9.760;2022-08-21T09:19:49;101013.72;;;24.10;48.71
58927;BME280;44712;52.530;9.760;2022-08-21T09:22:53;101019.72;;;24.16;48.33
58927;BME280;44712;52.530;9.760;2022-08-21T09:25:27;101023.44;;;24.44;48.44
58927;BME280;44712;52.530;9.760;2022-08-21T09:27:55;101023.09;;;24.63;48.09
58927;BME280;44712;52.530;9.760;2022-08-21T09:30:27;101010.19;;;24.49;46.21
58927;BME280;44712;52.530;9.760;2022-08-21T09:32:57;101022.47;;;24.72;47.84
58927;BME280;44712;52.530;9.760;2022-08-21T09:35:24;101011.19;;;24.76;46.73
58927;BME280;44712;52.530;9.760;2022-08-21T09:38:05;101019.94;;;24.69;46.72
58927;BME280;44712;52.530;9.760;2022-08-21T09:40:45;101015.53;;;24.80;47.01
58927;BME280;44712;52.530;9.760;2022-08-21T09:45:42;101013.31;;;25.12;46.15
58927;BME280;44712;52.530;9.760;2022-08-21T09:48:19;101009.41;;;24.74;45.05
58927;BME280;44712;52.530;9.760;2022-08-21T09:50:46;101006.69;;;24.87;45.81
58927;BME280;44712;52.530;9.760;2022-08-21T09:53:20;101004.66;;;25.17;47.66
58927;BME280;44712;52.530;9.760;2022-08-21T09:58:39;101008.41;;;25.03;44.62
58927;BME280;44712;52.530;9.760;2022-08-21T10:01:14;101006.16;;;24.95;43.95
58927;BME280;44712;52.530;9.760;2022-08-21T10:03:41;101012.09;;;24.76;42.83
58927;BME280;44712;52.530;9.760;2022-08-21T10:06:09;101011.00;;;24.79;42.88
58927;BME280;44712;52.530;9.760;2022-08-21T10:08:38;101009.47;;;24.87;44.51
58927;BME280;44712;52.530;9.760;2022-08-21T10:11:14;101001.63;;;24.94;44.28
58927;BME280;44712;52.530;9.760;2022-08-21T10:16:32;101000.81;;;24.79;44.44
58927;BME280;44712;52.530;9.760;2022-08-21T10:19:18;100996.88;;;24.96;44.76
58927;BME280;44712;52.530;9.760;2022-08-21T10:21:59;100999.50;;;24.85;43.48
58927;BME280;44712;52.530;9.760;2022-08-21T10:24:52;100984.94;;;24.68;43.78
58927;BME280;44712;52.530;9.760;2022-08-21T10:27:39;100997.78;;;24.69;43.99
58927;BME280;44712;52.530;9.760;2022-08-21T10:30:14;100990.13;;;25.00;44.93
58927;BME280;44712;52.530;9.760;2022-08-21T10:33:13;100999.13;;;25.17;43.17
58927;BME280;44712;52.530;9.760;2022-08-21T10:36:09;100993.03;;;24.71;42.90
58927;BME280;44712;52.530;9.760;2022-08-21T10:42:28;100991.81;;;25.16;43.54
58927;BME280;44712;52.530;9.760;2022-08-21T10:55:19;100975.13;;;25.56;42.98
58927;BME280;44712;52.530;9.760;2022-08-21T10:57:52;100983.91;;;25.76;43.76
58927;BME280;44712;52.530;9.760;2022-08-21T11:00:23;100973.78;;;25.74;40.95
58927;BME280;44712;52.530;9.760;2022-08-21T11:03:07;100964.59;;;25.87;41.54
58927;BME280;44712;52.530;9.760;2022-08-21T11:05:45;100973.78;;;26.00;42.33
58927;BME280;44712;52.530;9.760;2022-08-21T11:08:26;100974.53;;;26.02;42.31
58927;BME280;44712;52.530;9.760;2022-08-21T11:11:04;100977.88;;;25.95;41.31
58927;BME280;44712;52.530;9.760;2022-08-21T11:13:47;100975.81;;;25.60;41.31
58927;BME280;44712;52.530;9.760;2022-08-21T11:19:21;100979.22;;;25.89;42.54
58927;BME280;44712;52.530;9.760;2022-08-21T11:21:56;100990.00;;;25.55;40.98
58927;BME280;44712;52.530;9.760;2022-08-21T11:27:03;100988.34;;;25.39;41.82
58927;BME280;44712;52.530;9.760;2022-08-21T11:29:35;100986.34;;;25.42;41.46
58927;BME280;44712;52.530;9.760;2022-08-21T11:32:29;100980.03;;;25.39;42.30
58927;BME280;44712;52.530;9.760;2022-08-21T11:38:40;100966.16;;;25.65;40.13
58927;BME280;44712;52.530;9.760;2022-08-21T11:52:07;100963.06;;;25.57;38.90
58927;BME280;44712;52.530;9.760;2022-08-21T11:57:24;100964.38;;;25.77;39.55
58927;BME280;44712;52.530;9.760;2022-08-21T12:00:04;100964.59;;;25.87;40.41
58927;BME280;44712;52.530;9.760;2022-08-21T12:02:43;100961.72;;;25.88;40.61
58927;BME280;44712;52.530;9.760;2022-08-21T12:05:24;100955.50;;;25.85;38.12
58927;BME280;44712;52.530;9.760;2022-08-21T12:08:05;100958.81;;;25.90;39.31
58927;BME280;44712;52.530;9.760;2022-08-21T12:10:39;100947.25;;;25.96;39.57
58927;BME280;44712;52.530;9.760;2022-08-21T12:13:24;100957.16;;;25.74;38.31
58927;BME280;44712;52.530;9.760;2022-08-21T12:16:24;100956.41;;;25.72;38.77
58927;BME280;44712;52.530;9.760;2022-08-21T12:21:31;100953.31;;;25.64;39.30
58927;BME280;44712;52.530;9.760;2022-08-21T12:26:51;100952.84;;;25.70;38.20
58927;BME280;44712;52.530;9.760;2022-08-21T12:29:30;100954.84;;;25.81;39.21
58927;BME280;44712;52.530;9.760;2022-08-21T12:34:44;100953.09;;;25.54;37.91
58927;BME280;44712;52.530;9.760;2022-08-21T12:37:18;100952.53;;;25.49;39.89
58927;BME280;44712;52.530;9.760;2022-08-21T12:39:49;100948.44;;;25.55;38.52
58927;BME280;44712;52.530;9.760;2022-08-21T12:42:22;100955.53;;;25.59;39.04
58927;BME280;44712;52.530;9.760;2022-08-21T12:44:53;100954.88;;;25.55;39.06
58927;BME280;44712;52.530;9.760;2022-08-21T12:47:36;100940.47;;;25.63;38.63
58927;BME280;44712;52.530;9.760;2022-08-21T12:50:24;100941.22;;;25.65;39.13
58927;BME280;44712;52.530;9.760;2022-08-21T12:53:13;100947.00;;;25.75;38.43
58927;BME280;44712;52.530;9.760;2022-08-21T12:55:47;100943.97;;;25.78;39.22
58927;BME280;44712;52.530;9.760;2022-08-21T12:58:22;100944.41;;;25.72;39.22
58927;BME280;44712;52.530;9.760;2022-08-21T13:00:56;100936.69;;;25.64;39.13
58927;BME280;44712;52.530;9.760;2022-08-21T13:03:25;100928.81;;;25.71;38.74
58927;BME280;44712;52.530;9.760;2022-08-21T13:05:52;100928.63;;;25.48;39.19
58927;BME280;44712;52.530;9.760;2022-08-21T13:08:21;100932.63;;;25.44;38.59
58927;BME280;44712;52.530;9.760;2022-08-21T13:10:57;100939.66;;;25.61;41.05
58927;BME280;44712;52.530;9.760;2022-08-21T13:13:41;100932.59;;;25.57;40.87
58927;BME280;44712;52.530;9.760;2022-08-21T13:16:28;100927.78;;;25.72;41.42
58927;BME280;44712;52.530;9.760;2022-08-21T13:19:00;100933.13;;;25.62;40.91
58927;BME280;44712;52.530;9.760;2022-08-21T13:21:31;100938.03;;;25.46;40.92
58927;BME280;44712;52.530;9.760;2022-08-21T13:24:26;100937.91;;;25.34;41.31
58927;BME280;44712;52.530;9.760;2022-08-21T13:27:28;100936.22;;;25.19;42.45
58927;BME280;44712;52.530;9.760;2022-08-21T13:30:03;100943.75;;;25.17;42.10
58927;BME280;44712;52.530;9.760;2022-08-21T13:32:34;100936.31;;;25.17;42.64
58927;BME280;44712;52.530;9.760;2022-08-21T13:35:31;100932.00;;;25.13;41.50
58927;BME280;44712;52.530;9.760;2022-08-21T13:38:05;100927.34;;;25.01;40.54
58927;BME280;44712;52.530;9.760;2022-08-21T13:40:40;100929.00;;;25.03;42.13
58927;BME280;44712;52.530;9.760;2022-08-21T13:43:13;100932.22;;;25.10;42.10
58927;BME280;44712;52.530;9.760;2022-08-21T13:45:50;100930.22;;;25.25;41.45
58927;BME280;44712;52.530;9.760;2022-08-21T13:48:19;100933.16;;;25.36;41.05
58927;BME280;44712;52.530;9.760;2022-08-21T13:50:46;100930.06;;;25.54;42.09
58927;BME280;44712;52.530;9.760;2022-08-21T13:53:44;100926.50;;;25.52;42.16
58927;BME280;44712;52.530;9.760;2022-08-21T13:56:42;100934.94;;;25.37;42.46
58927;BME280;44712;52.530;9.760;2022-08-21T13:59:10;100933.78;;;25.27;41.40
58927;BME280;44712;52.530;9.760;2022-08-21T14:01:51;100925.03;;;25.33;40.83
58927;BME280;44712;52.530;9.760;2022-08-21T14:04:35;100928.03;;;25.30;39.03
58927;BME280;44712;52.530;9.760;2022-08-21T14:07:15;100911.19;;;25.33;39.77
58927;BME280;44712;52.530;9.760;2022-08-21T14:09:43;100925.59;;;25.38;39.89
58927;BME280;44712;52.530;9.760;2022-08-21T14:12:19;100924.19;;;25.46;40.41